Strona główna
METAR-TAF:

METAR-TAF

Lotnisko :

Parauapebas, Pará, Brazylia

Szerokość geograficzna: 06-07S, Długość geograficzna: 050-00W, wysokość: 621 m

Aktualna obserwacja pogody

Raport powstał 2 godziny i 57 minut temu, godzina 21:30 UTC
Cisza
Temperatura 24°C
Wilgotność 83%
Ciśnienie 1013 hPa
Widzialność 10 km lub więcej
Brak chmur poniżej 1500 m i brak chmur cumulonimbus

METAR: SBCJ 162130Z 00000KT CAVOK 24/21 Q1013

czas: 21:27 (00:27 UTC)

Prognoza

Raport powstał 3 godziny i 10 minut temu, godzina 21:17 UTC
Prognoza ważna od 17 godzina 00 UTC do 17 godzina 12 UTC
Wiatr 5 kt od północno-północny wschód
Widzialność 10 km lub więcej
Rozproszone chmury na wysokości 1000 ft
Prawdopodobieństwo 30%
od 17 godzina 09 UTC do 17 godzina 12 UTC
Widzialność: 4000 m
Przerywane chmury na wysokości 700 ft
zamglenie

TAF: SBCJ 162117Z 1700/1712 02005KT 9999 SCT010 TN24/1711Z TX25/1712Z PROB30 1709/1712 4000 BR BKN007 RMK PHI

Obserwacja i prognoza pogody dla ponad 4000 lotnisk (raport METAR i TAF).

Dostępne stacje oznaczono żółtymi i czerwonymi punktami na mapie.

Najedź kursorem aby zobaczyć nazwę stacji.

Kliknij aby zobaczyć obserwacje i prognozy pogody.

Aby zmienić mapę: kliknij na zielony przycisk z czarnym krzyżykiem, aby powiększyć; na zielony przycisk z myślnikiem, aby pomniejszyć; na zielone strzałki, aby przejść do map sąsiednich.


METAR-TAF: